Time;durP1;ratioP1;P1;durP2;ratioP2;P2;SDS_P1;SDS_P2;PMS_P1;PMS_P2;Temp;Humidity;BMP_temperature;BMP_pressure;BME280_temperature;BME280_humidity;BME280_pressure;Samples;Min_cycle;Max_cycle;Signal;HPM_P1;HPM_P2
2024/02/18 00:01:43;;;;;;;19.50;10.20;;;;;;;1.09;100.00;101765.78;4990700;28;20116;-69
2024/02/18 00:04:09;;;;;;;19.85;9.70;;;;;;;1.24;100.00;101803.63;4991058;28;20032;-72
2024/02/18 00:06:34;;;;;;;18.27;9.55;;;;;;;1.10;100.00;101803.19;4991601;28;20113;-72
2024/02/18 00:09:00;;;;;;;17.83;9.45;;;;;;;0.93;100.00;101798.13;4991333;28;20108;-69
2024/02/18 00:11:25;;;;;;;20.67;9.38;;;;;;;0.87;100.00;101800.94;4989321;28;20030;-72
2024/02/18 00:13:51;;;;;;;15.53;8.73;;;;;;;0.78;100.00;101792.44;4988876;28;20022;-70
2024/02/18 00:16:17;;;;;;;14.82;8.10;;;;;;;0.77;100.00;101780.47;4992084;28;20055;-69
2024/02/18 00:18:43;;;;;;;14.00;8.60;;;;;;;0.96;100.00;101803.53;4990431;28;20822;-69
2024/02/18 00:21:14;;;;;;;16.50;8.85;;;;;;;0.98;100.00;101811.28;4988831;28;20046;-70
2024/02/18 00:23:40;;;;;;;14.30;8.18;;;;;;;0.99;100.00;101806.34;4990595;28;20089;-69
2024/02/18 00:26:05;;;;;;;41.38;22.83;;;;;;;1.10;100.00;101804.84;4990592;28;20117;-72
2024/02/18 00:28:31;;;;;;;70.40;40.40;;;;;;;1.18;100.00;101806.47;4990330;28;20034;-70
2024/02/18 00:30:57;;;;;;;71.63;37.22;;;;;;;1.15;100.00;101803.66;4981028;28;20458;-69
2024/02/18 00:33:22;;;;;;;64.75;33.25;;;;;;;1.22;100.00;101805.13;4990633;28;20022;-69
2024/02/18 00:35:48;;;;;;;89.18;48.85;;;;;;;1.29;100.00;101807.50;4990992;28;20030;-68
2024/02/18 00:38:13;;;;;;;109.25;59.33;;;;;;;1.15;100.00;101782.38;4989701;28;20030;-68
2024/02/18 00:40:39;;;;;;;133.02;70.70;;;;;;;1.34;100.00;101803.75;4990520;28;20034;-69
2024/02/18 00:43:04;;;;;;;140.60;80.43;;;;;;;1.36;100.00;101799.72;4990234;28;20030;-69
2024/02/18 00:45:30;;;;;;;151.90;80.40;;;;;;;1.21;100.00;101796.59;4989708;28;20026;-69
2024/02/18 00:47:55;;;;;;;170.85;79.35;;;;;;;1.09;100.00;101764.91;4990498;28;20049;-68
2024/02/18 00:50:21;;;;;;;131.13;67.30;;;;;;;1.23;100.00;101792.53;4989443;28;20022;-69
2024/02/18 00:52:46;;;;;;;100.20;51.83;;;;;;;1.23;100.00;101794.19;4990314;28;20121;-70
2024/02/18 00:55:11;;;;;;;59.03;30.10;;;;;;;1.11;100.00;101786.31;4990212;28;20026;-72
2024/02/18 00:57:37;;;;;;;41.75;22.48;;;;;;;1.14;100.00;101789.13;4989791;28;20034;-68
2024/02/18 01:00:04;;;;;;;39.42;20.58;;;;;;;1.19;100.00;101776.84;4975232;28;20033;-73
2024/02/18 01:02:30;;;;;;;35.38;18.70;;;;;;;1.28;100.00;101793.91;4989683;28;20469;-70
2024/02/18 01:04:56;;;;;;;30.83;16.75;;;;;;;1.18;100.00;101770.84;4989990;28;20038;-68
2024/02/18 01:07:22;;;;;;;35.85;17.33;;;;;;;1.18;100.00;101777.59;4989648;28;20037;-70
2024/02/18 01:09:49;;;;;;;25.40;14.45;;;;;;;1.13;100.00;101780.59;4990563;28;20413;-68
2024/02/18 01:12:16;;;;;;;22.40;12.45;;;;;;;1.01;100.00;101771.81;4989589;28;20045;-69
2024/02/18 01:14:42;;;;;;;36.08;21.35;;;;;;;0.74;100.00;101724.28;4989616;28;20030;-68
2024/02/18 01:17:08;;;;;;;96.70;52.40;;;;;;;0.39;100.00;101676.91;4951038;28;20063;-69
2024/02/18 01:19:34;;;;;;;148.27;80.07;;;;;;;0.87;100.00;101774.66;4953021;28;20047;-69
2024/02/18 01:21:59;;;;;;;124.73;67.67;;;;;;;0.79;100.00;101766.28;4955638;28;20097;-69
2024/02/18 01:24:25;;;;;;;93.78;48.55;;;;;;;-0.09;100.00;101611.31;4951247;28;20035;-70
2024/02/18 01:26:53;;;;;;;71.43;35.78;;;;;;;0.84;100.00;101765.06;4956322;28;20054;-71
2024/02/18 01:29:19;;;;;;;46.07;25.33;;;;;;;0.79;100.00;101753.56;4953720;28;20031;-68
2024/02/18 01:31:44;;;;;;;49.17;24.67;;;;;;;0.84;100.00;101761.66;4952859;28;20051;-70
2024/02/18 01:34:10;;;;;;;42.10;20.80;;;;;;;0.84;100.00;101759.09;4954975;28;20042;-71
2024/02/18 01:36:35;;;;;;;32.00;16.80;;;;;;;0.65;100.00;101729.38;4951364;28;20035;-68
2024/02/18 01:39:01;;;;;;;36.20;20.00;;;;;;;0.89;100.00;101765.53;4952644;28;20042;-68
2024/02/18 01:41:27;;;;;;;30.75;15.65;;;;;;;0.82;100.00;101737.72;4955881;28;20031;-69
2024/02/18 01:43:52;;;;;;;36.75;15.82;;;;;;;0.50;100.00;101670.31;4950866;28;20039;-68
2024/02/18 01:46:18;;;;;;;32.88;16.02;;;;;;;0.64;100.00;101712.31;4953236;28;20500;-69
2024/02/18 01:48:44;;;;;;;28.55;15.18;;;;;;;0.50;100.00;101692.28;4984931;28;20062;-71
2024/02/18 01:51:10;;;;;;;33.88;16.80;;;;;;;0.66;100.00;101728.63;4993042;28;20042;-71
2024/02/18 01:53:37;;;;;;;34.75;17.98;;;;;;;0.63;100.00;101746.09;4993588;28;20065;-74
2024/02/18 01:56:03;;;;;;;32.78;17.48;;;;;;;0.43;100.00;101726.38;4992966;28;20112;-70
2024/02/18 01:58:31;;;;;;;66.33;30.03;;;;;;;0.39;100.00;101739.53;4992886;28;20125;-71
2024/02/18 02:00:57;;;;;;;88.60;40.93;;;;;;;0.17;100.00;101739.94;4983362;28;20041;-70
2024/02/18 02:03:23;;;;;;;96.80;40.43;;;;;;;0.09;100.00;101720.50;4993597;28;20413;-69
2024/02/18 02:05:50;;;;;;;73.40;30.57;;;;;;;-0.37;100.00;101626.34;4992923;28;20026;-69
2024/02/18 02:08:15;;;;;;;54.10;23.03;;;;;;;-0.27;100.00;101653.53;4978182;28;20414;-69
2024/02/18 02:10:41;;;;;;;39.27;18.17;;;;;;;0.02;100.00;101751.13;4993225;28;20165;-70
2024/02/18 02:13:06;;;;;;;31.63;13.83;;;;;;;-0.41;100.00;101667.41;4992819;28;20092;-69
2024/02/18 02:15:33;;;;;;;24.80;12.47;;;;;;;0.12;100.00;101751.28;4993204;28;20054;-70
2024/02/18 02:17:59;;;;;;;20.00;10.73;;;;;;;0.00;100.00;101750.97;4991940;28;20403;-70
2024/02/18 02:20:24;;;;;;;24.57;10.77;;;;;;;0.10;100.00;101761.28;4991501;28;20049;-70
2024/02/18 02:22:50;;;;;;;19.73;10.43;;;;;;;0.12;100.00;101744.53;4991436;28;20034;-70
2024/02/18 02:25:16;;;;;;;24.13;12.03;;;;;;;0.12;100.00;101734.38;4991787;28;20026;-70
2024/02/18 02:27:44;;;;;;;26.20;12.10;;;;;;;0.21;100.00;101736.06;4992019;28;20034;-70
2024/02/18 02:30:10;;;;;;;30.70;15.03;;;;;;;0.24;100.00;101754.16;4992013;28;20161;-71
2024/02/18 02:32:35;;;;;;;27.40;11.93;;;;;;;-0.82;100.00;101606.69;4991501;28;20072;-71
2024/02/18 02:35:02;;;;;;;22.73;12.17;;;;;;;-0.04;100.00;101756.47;4991932;28;20030;-70
2024/02/18 02:37:29;;;;;;;29.27;13.13;;;;;;;-0.12;100.00;101744.66;4992387;28;20030;-70
2024/02/18 02:39:54;;;;;;;27.03;12.87;;;;;;;0.02;100.00;101757.06;4991423;28;20398;-69
2024/02/18 02:42:20;;;;;;;30.97;14.50;;;;;;;0.07;100.00;101753.34;4991020;28;20026;-70
2024/02/18 02:44:45;;;;;;;27.87;11.47;;;;;;;-0.06;100.00;101722.44;4983323;28;20030;-70
2024/02/18 02:47:11;;;;;;;22.10;9.67;;;;;;;0.02;100.00;101753.66;4991345;28;20022;-71
2024/02/18 02:49:36;;;;;;;16.57;8.57;;;;;;;-0.06;100.00;101747.81;4978509;28;20054;-70
2024/02/18 02:52:02;;;;;;;15.00;7.67;;;;;;;-0.11;100.00;101738.81;4991039;28;20038;-69
2024/02/18 02:54:27;;;;;;;14.53;7.27;;;;;;;-0.27;100.00;101756.72;4991133;28;20042;-72
2024/02/18 02:56:53;;;;;;;16.40;7.33;;;;;;;-0.85;100.00;101724.63;4940657;28;20052;-69
2024/02/18 02:59:19;;;;;;;17.80;8.63;;;;;;;-0.67;100.00;101766.22;4983627;28;20030;-70
2024/02/18 03:01:45;;;;;;;14.13;7.47;;;;;;;-1.03;100.00;101691.59;4991238;28;20031;-71
2024/02/18 03:04:12;;;;;;;17.60;8.27;;;;;;;-0.55;100.00;101762.41;4990938;28;20101;-71
2024/02/18 03:06:38;;;;;;;15.43;8.07;;;;;;;-0.46;100.00;101762.44;4991405;28;20034;-70
2024/02/18 03:09:03;;;;;;;16.07;7.60;;;;;;;-0.34;100.00;101768.78;4989961;28;20088;-70
2024/02/18 03:11:29;;;;;;;14.57;8.23;;;;;;;-0.27;100.00;101777.91;4990784;28;20053;-70
2024/02/18 03:13:55;;;;;;;13.27;7.80;;;;;;;-0.38;100.00;101748.88;4990556;28;20058;-69
2024/02/18 03:16:21;;;;;;;15.50;7.53;;;;;;;-0.19;100.00;101771.03;4948607;28;1249987;-70
2024/02/18 03:18:46;;;;;;;15.03;7.50;;;;;;;-0.10;100.00;101787.22;4992067;28;20498;-70
2024/02/18 03:21:12;;;;;;;17.43;9.13;;;;;;;-0.16;100.00;101756.16;4991877;28;20085;-70
2024/02/18 03:23:38;;;;;;;17.47;7.83;;;;;;;-0.25;100.00;101745.97;4991595;28;20614;-70
2024/02/18 03:26:04;;;;;;;15.93;8.57;;;;;;;-0.15;100.00;101757.91;4991310;28;20160;-69
2024/02/18 03:28:29;;;;;;;18.77;9.93;;;;;;;-0.24;100.00;101745.19;4991760;28;20046;-69
2024/02/18 03:30:55;;;;;;;18.80;10.10;;;;;;;-0.27;100.00;101757.59;4991514;28;20030;-69
2024/02/18 03:33:20;;;;;;;33.47;11.30;;;;;;;-0.87;100.00;101670.38;4991137;28;20026;-69
2024/02/18 03:35:46;;;;;;;24.37;11.30;;;;;;;-0.87;100.00;101670.38;4992405;28;20037;-70
2024/02/18 03:38:12;;;;;;;21.67;9.57;;;;;;;-0.46;100.00;101742.16;4991650;28;20027;-70
2024/02/18 03:40:38;;;;;;;22.03;9.40;;;;;;;-0.41;100.00;101753.66;4991366;28;20039;-70
2024/02/18 03:43:04;;;;;;;21.83;9.53;;;;;;;-0.47;100.00;101764.81;4991440;28;20019;-71
2024/02/18 03:45:30;;;;;;;24.70;11.57;;;;;;;-0.66;100.00;101748.63;4977942;28;20027;-70
2024/02/18 03:47:56;;;;;;;32.90;13.23;;;;;;;-1.04;100.00;101678.75;4991232;28;20084;-70
2024/02/18 03:50:21;;;;;;;55.00;22.13;;;;;;;-0.79;100.00;101737.94;4992058;28;20398;-70
2024/02/18 03:52:47;;;;;;;39.10;17.23;;;;;;;-0.75;100.00;101749.31;4991145;28;20042;-71
2024/02/18 03:55:14;;;;;;;38.47;16.50;;;;;;;-0.77;100.00;101748.25;4991008;28;20606;-70
2024/02/18 03:57:40;;;;;;;38.47;15.57;;;;;;;-1.18;100.00;101677.34;4990677;28;20512;-71
2024/02/18 04:00:09;;;;;;;28.10;13.60;;;;;;;-0.62;100.00;101761.59;4991365;28;20041;-71
2024/02/18 04:02:39;;;;;;;16.70;8.73;;;;;;;-0.60;100.00;101766.09;4962013;28;20042;-73
2024/02/18 04:05:06;;;;;;;23.58;9.93;;;;;;;-0.79;100.00;101759.88;4991154;28;20030;-73
2024/02/18 04:07:33;;;;;;;17.10;8.47;;;;;;;-1.40;100.00;101745.16;4990416;28;20409;-69
2024/02/18 04:09:59;;;;;;;17.07;8.20;;;;;;;-1.68;100.00;101773.50;4990971;28;20037;-70
2024/02/18 04:12:24;;;;;;;17.37;7.97;;;;;;;-1.87;100.00;101722.56;4989953;28;20038;-70
2024/02/18 04:14:50;;;;;;;19.87;8.77;;;;;;;-1.63;100.00;101736.91;4990530;28;20034;-74
2024/02/18 04:17:15;;;;;;;18.47;7.77;;;;;;;-1.86;100.00;101688.88;4990252;28;20047;-71
2024/02/18 04:19:41;;;;;;;23.57;10.07;;;;;;;-1.41;100.00;101772.09;4991006;28;20034;-70
2024/02/18 04:22:06;;;;;;;26.07;10.57;;;;;;;-1.30;100.00;101770.69;4990594;28;20034;-70
2024/02/18 04:24:32;;;;;;;16.30;7.90;;;;;;;-1.32;100.00;101757.88;4990641;28;20034;-71
2024/02/18 04:27:00;;;;;;;16.47;8.43;;;;;;;-1.17;100.00;101773.78;4990345;28;20053;-73
2024/02/18 04:29:25;;;;;;;15.63;7.57;;;;;;;-1.30;100.00;101747.91;4991068;28;20045;-71
2024/02/18 04:31:51;;;;;;;16.70;8.23;;;;;;;-1.09;100.00;101778.78;4989850;28;20421;-70
2024/02/18 04:34:16;;;;;;;15.70;7.43;;;;;;;-1.33;100.00;101755.19;4990718;28;20073;-71
2024/02/18 04:36:46;;;;;;;16.00;7.80;;;;;;;-1.20;100.00;101772.56;4990033;28;20034;-71
2024/02/18 04:39:12;;;;;;;17.03;8.37;;;;;;;-1.19;100.00;101775.25;4957740;28;20043;-70
2024/02/18 04:41:37;;;;;;;16.10;8.13;;;;;;;-1.18;100.00;101776.19;4990017;28;20045;-70
2024/02/18 04:44:03;;;;;;;14.93;7.70;;;;;;;-1.67;100.00;101675.66;4989909;28;20038;-70
2024/02/18 04:46:29;;;;;;;16.87;8.33;;;;;;;-1.09;100.00;101776.25;4989938;28;20053;-71
2024/02/18 04:48:56;;;;;;;14.73;7.73;;;;;;;-1.41;100.00;101713.84;4957976;28;20045;-70
2024/02/18 04:51:22;;;;;;;18.03;9.50;;;;;;;-1.36;100.00;101752.31;4989332;28;20081;-70
2024/02/18 04:53:47;;;;;;;26.73;9.60;;;;;;;-1.43;100.00;101734.66;4990657;28;20042;-69
2024/02/18 04:56:13;;;;;;;25.90;9.47;;;;;;;-1.28;100.00;101743.91;4990024;28;20031;-70
2024/02/18 04:58:38;;;;;;;17.27;9.33;;;;;;;-1.14;100.00;101774.09;4989940;28;20145;-70
2024/02/18 05:01:04;;;;;;;16.57;7.97;;;;;;;-1.39;100.00;101769.75;4989836;28;20413;-70
2024/02/18 05:03:29;;;;;;;17.03;8.10;;;;;;;-1.35;100.00;101766.78;4990282;28;20484;-70
2024/02/18 05:05:55;;;;;;;17.83;8.60;;;;;;;-1.68;100.00;101729.56;4989605;28;20046;-70
2024/02/18 05:08:20;;;;;;;16.47;7.67;;;;;;;-1.75;100.00;101704.34;4990747;28;20745;-71
2024/02/18 05:10:46;;;;;;;14.73;7.63;;;;;;;-1.25;100.00;101779.69;4989925;28;20034;-71
2024/02/18 05:13:11;;;;;;;18.73;8.03;;;;;;;-1.22;100.00;101780.03;4989485;28;20034;-71
2024/02/18 05:15:37;;;;;;;16.30;7.50;;;;;;;-1.27;100.00;101765.97;4990482;28;20409;-70
2024/02/18 05:18:03;;;;;;;17.83;7.70;;;;;;;-1.12;100.00;101779.34;4989970;28;20058;-71
2024/02/18 05:20:28;;;;;;;15.13;8.53;;;;;;;-1.09;100.00;101781.31;4989138;28;20032;-70
2024/02/18 05:22:53;;;;;;;17.57;8.47;;;;;;;-0.94;100.00;101790.50;4989852;28;20394;-71
2024/02/18 05:25:19;;;;;;;20.20;9.93;;;;;;;-0.92;100.00;101791.56;4989481;28;20031;-70
2024/02/18 05:27:44;;;;;;;26.47;12.40;;;;;;;-1.07;100.00;101779.81;4989459;28;20158;-70
2024/02/18 05:30:11;;;;;;;30.50;11.70;;;;;;;-1.07;100.00;101790.88;4990313;28;20029;-69
2024/02/18 05:32:36;;;;;;;27.93;12.77;;;;;;;-1.50;100.00;101734.03;4989330;28;20458;-68
2024/02/18 05:35:02;;;;;;;26.03;12.37;;;;;;;-1.13;100.00;101777.56;4981771;28;20041;-71
2024/02/18 05:37:28;;;;;;;236.00;94.90;;;;;;;-1.58;100.00;101703.56;4989572;28;20030;-70
2024/02/18 05:39:53;;;;;;;103.83;38.67;;;;;;;-1.08;100.00;101785.66;4990613;28;20466;-70
2024/02/18 05:42:19;;;;;;;33.47;15.73;;;;;;;-1.69;100.00;101695.75;4989946;28;20536;-70
2024/02/18 05:44:44;;;;;;;86.83;41.50;;;;;;;-1.06;100.00;101790.13;4989279;28;20045;-69
2024/02/18 05:47:10;;;;;;;46.30;22.47;;;;;;;-1.42;100.00;101739.00;4975091;28;20030;-70
2024/02/18 05:49:36;;;;;;;19.63;11.30;;;;;;;-1.05;100.00;101798.63;4989823;28;20111;-70
2024/02/18 05:52:01;;;;;;;21.87;12.60;;;;;;;-1.05;100.00;101784.31;4989325;28;20096;-71
2024/02/18 05:54:27;;;;;;;20.97;10.90;;;;;;;-0.92;100.00;101793.19;4977957;28;20058;-70
2024/02/18 05:56:52;;;;;;;19.43;11.53;;;;;;;-0.88;100.00;101785.19;4989295;28;20094;-70
2024/02/18 05:59:18;;;;;;;22.47;11.00;;;;;;;-0.86;100.00;101787.13;4989863;28;20030;-68
2024/02/18 06:01:43;;;;;;;19.43;10.47;;;;;;;-0.87;100.00;101780.28;4989021;28;20546;-69
2024/02/18 06:04:09;;;;;;;23.90;11.43;;;;;;;-1.22;100.00;101704.00;4989023;28;20035;-70
2024/02/18 06:06:34;;;;;;;33.33;18.30;;;;;;;-0.67;100.00;101789.06;4989688;28;20030;-69
2024/02/18 06:09:00;;;;;;;23.73;11.30;;;;;;;-0.65;100.00;101802.75;4990106;28;20104;-70
2024/02/18 06:11:25;;;;;;;21.67;11.23;;;;;;;-0.85;100.00;101808.31;4989740;28;20031;-69
2024/02/18 06:13:51;;;;;;;21.67;10.90;;;;;;;-0.93;100.00;101789.78;4964409;28;20034;-69
2024/02/18 06:16:17;;;;;;;16.17;9.97;;;;;;;-0.82;100.00;101794.31;4989711;28;20075;-70
2024/02/18 06:18:42;;;;;;;16.97;10.00;;;;;;;-1.03;100.00;101792.09;4989196;28;20092;-70
2024/02/18 06:21:08;;;;;;;17.20;9.60;;;;;;;-1.24;100.00;101796.69;4988903;28;20151;-69
2024/02/18 06:23:33;;;;;;;18.07;9.73;;;;;;;-1.24;100.00;101841.41;4989032;28;20081;-69
2024/02/18 06:25:59;;;;;;;18.57;10.83;;;;;;;-1.16;100.00;101811.06;4988878;28;20478;-70
2024/02/18 06:28:32;;;;;;;20.20;10.80;;;;;;;-0.96;100.00;101829.09;4989112;28;20022;-70
2024/02/18 06:30:59;;;;;;;22.53;11.47;;;;;;;-0.79;100.00;101843.56;4988582;28;20030;-71
2024/02/18 06:33:25;;;;;;;19.40;11.30;;;;;;;-0.82;100.00;101795.97;4988758;28;20114;-69
2024/02/18 06:35:50;;;;;;;20.73;12.17;;;;;;;-0.50;100.00;101817.03;4991927;28;20121;-70
2024/02/18 06:38:16;;;;;;;21.70;11.70;;;;;;;-0.23;100.00;101829.88;4957870;28;20045;-70
2024/02/18 06:40:41;;;;;;;24.50;11.53;;;;;;;-0.12;100.00;101825.91;4991952;28;20122;-69
2024/02/18 06:43:07;;;;;;;19.93;11.33;;;;;;;-0.13;100.00;101822.44;4979697;28;20034;-72
2024/02/18 06:45:32;;;;;;;23.10;12.50;;;;;;;0.10;100.00;101828.94;4991447;28;20090;-72
2024/02/18 06:47:58;;;;;;;20.70;11.47;;;;;;;0.29;100.00;101827.50;4992551;28;20085;-70
2024/02/18 06:50:23;;;;;;;23.10;12.27;;;;;;;0.05;100.00;101752.31;4992364;28;20117;-69
2024/02/18 06:52:49;;;;;;;23.00;12.20;;;;;;;0.63;100.00;101823.22;4992819;28;20030;-70
2024/02/18 06:55:14;;;;;;;26.70;12.57;;;;;;;-0.38;100.00;101623.66;4992056;28;20044;-71
2024/02/18 06:57:44;;;;;;;24.07;13.27;;;;;;;0.78;100.00;101812.78;4992048;28;20410;-69
2024/02/18 07:00:10;;;;;;;29.73;14.25;;;;;;;0.85;100.00;101814.25;4991907;28;20477;-69
2024/02/18 07:02:36;;;;;;;28.27;14.85;;;;;;;0.84;100.00;101821.00;4991537;28;20461;-69
2024/02/18 07:05:06;;;;;;;28.05;15.02;;;;;;;0.45;100.00;101729.97;4944871;28;20049;-69
2024/02/18 07:07:31;;;;;;;;;;;;;;;1.17;100.00;101816.50;4976379;28;20498;-71
2024/02/18 07:09:57;;;;;;;28.80;13.85;;;;;;;1.31;100.00;101808.56;4992724;28;19917;-70
2024/02/18 07:12:22;;;;;;;30.05;16.75;;;;;;;1.23;100.00;101769.63;4991641;28;20513;-69
2024/02/18 07:14:48;;;;;;;48.70;30.65;;;;;;;1.29;100.00;101766.81;4991725;28;20049;-70
2024/02/18 07:17:19;;;;;;;40.40;24.90;;;;;;;1.76;100.00;101810.22;4991673;28;20050;-69
2024/02/18 07:19:46;;;;;;;26.10;14.80;;;;;;;1.99;100.00;101812.34;4991892;28;20050;-70
2024/02/18 07:22:14;;;;;;;21.75;12.63;;;;;;;2.04;100.00;101789.88;4960074;28;20046;-69
2024/02/18 07:24:40;;;;;;;26.40;12.77;;;;;;;2.23;100.00;101808.66;4991879;28;20545;-69
2024/02/18 07:27:05;;;;;;;25.02;13.95;;;;;;;2.34;100.00;101804.53;4991550;28;20109;-70
2024/02/18 07:29:31;;;;;;;23.67;14.20;;;;;;;2.48;100.00;101816.00;4991282;28;20030;-71
2024/02/18 07:31:56;;;;;;;25.20;15.85;;;;;;;2.07;100.00;101722.28;4992672;28;20061;-70
2024/02/18 07:34:22;;;;;;;27.25;17.48;;;;;;;2.35;100.00;101749.38;4991459;28;20038;-69
2024/02/18 07:36:47;;;;;;;23.23;14.60;;;;;;;2.86;100.00;101815.13;4991641;28;20504;-71
2024/02/18 07:39:13;;;;;;;26.58;16.20;;;;;;;3.00;100.00;101817.22;4978107;28;20116;-70
2024/02/18 07:41:39;;;;;;;25.23;15.73;;;;;;;2.82;100.00;101750.19;4991547;28;20076;-70
2024/02/18 07:44:05;;;;;;;24.70;14.30;;;;;;;3.11;100.00;101795.22;4990764;28;20037;-71
2024/02/18 07:46:32;;;;;;;22.90;14.55;;;;;;;3.30;100.00;101807.06;4990559;28;20026;-70
2024/02/18 07:48:57;;;;;;;22.23;14.18;;;;;;;3.40;100.00;101808.00;4991054;28;20030;-70
2024/02/18 07:51:26;;;;;;;22.60;13.20;;;;;;;3.36;100.00;101799.94;4990946;28;20053;-69
2024/02/18 07:53:52;;;;;;;23.58;14.63;;;;;;;3.28;100.00;101783.97;4990719;28;20050;-73
2024/02/18 07:56:17;;;;;;;24.58;14.85;;;;;;;3.26;100.00;101748.84;4989857;28;20037;-70
2024/02/18 07:58:44;;;;;;;25.85;14.20;;;;;;;3.51;100.00;101800.38;4990574;28;20035;-70
2024/02/18 08:01:09;;;;;;;27.30;14.65;;;;;;;3.29;100.00;101815.47;4991209;28;20030;-69
2024/02/18 08:03:35;;;;;;;22.95;13.95;;;;;;;3.32;100.00;101805.53;4991091;28;20037;-70
2024/02/18 08:06:00;;;;;;;27.13;16.23;;;;;;;3.03;100.00;101717.13;4964961;28;20057;-70
2024/02/18 08:08:26;;;;;;;27.33;15.27;;;;;;;3.65;100.00;101797.38;4991721;28;20497;-69
2024/02/18 08:10:51;;;;;;;26.75;14.85;;;;;;;3.97;100.00;101796.66;4990581;28;20121;-70
2024/02/18 08:13:17;;;;;;;24.92;14.00;;;;;;;4.18;100.00;101796.69;4990676;28;20094;-69
2024/02/18 08:15:42;;;;;;;26.95;15.23;;;;;;;4.18;100.00;101795.00;4991031;28;20173;-70
2024/02/18 08:18:09;;;;;;;29.65;16.10;;;;;;;4.33;100.00;101794.53;4990863;28;20076;-71
2024/02/18 08:20:35;;;;;;;21.88;13.95;;;;;;;4.42;100.00;101805.50;4990564;28;20506;-70
2024/02/18 08:23:01;;;;;;;24.55;15.32;;;;;;;4.08;100.00;101702.13;4990574;28;20109;-70
2024/02/18 08:25:26;;;;;;;26.27;13.95;;;;;;;4.72;100.00;101788.34;4990591;28;20125;-70
2024/02/18 08:27:52;;;;;;;28.17;14.50;;;;;;;4.86;100.00;101771.59;4976143;28;20057;-70
2024/02/18 08:30:18;;;;;;;26.90;14.13;;;;;;;5.08;100.00;101788.66;4990932;28;20026;-71
2024/02/18 08:32:45;;;;;;;25.42;14.27;;;;;;;5.20;100.00;101787.06;4990504;28;20034;-70
2024/02/18 08:35:10;;;;;;;26.45;14.73;;;;;;;5.19;100.00;101777.59;4990124;28;20026;-70
2024/02/18 08:37:36;;;;;;;25.48;13.63;;;;;;;5.40;100.00;101787.78;4990551;28;20399;-70
2024/02/18 08:40:03;;;;;;;26.75;14.40;;;;;;;5.52;100.00;101796.44;4990017;28;20515;-69
2024/02/18 08:42:28;;;;;;;26.30;15.30;;;;;;;5.50;100.00;101754.41;4990202;28;20041;-69
2024/02/18 08:44:55;;;;;;;22.85;13.27;;;;;;;5.37;100.00;101708.13;4977460;28;20410;-70
2024/02/18 08:47:20;;;;;;;23.17;14.32;;;;;;;5.34;100.00;101714.78;4990246;28;20030;-70
2024/02/18 08:49:47;;;;;;;23.83;13.38;;;;;;;5.91;100.00;101787.47;4990120;28;20513;-70
2024/02/18 08:52:14;;;;;;;22.70;14.32;;;;;;;6.07;100.00;101780.97;4990810;28;20034;-70
2024/02/18 08:54:43;;;;;;;25.20;13.82;;;;;;;5.97;100.00;101779.38;4979730;28;20048;-71
2024/02/18 08:57:09;;;;;;;20.73;12.65;;;;;;;5.81;100.00;101764.50;4989741;28;20105;-70
2024/02/18 08:59:35;;;;;;;22.63;13.10;;;;;;;5.80;100.00;101762.69;4973091;28;20045;-69
2024/02/18 09:02:01;;;;;;;25.75;14.07;;;;;;;5.99;100.00;101772.72;4989642;28;20031;-69
2024/02/18 09:04:26;;;;;;;24.27;14.05;;;;;;;6.18;100.00;101763.84;4990263;28;20037;-70
2024/02/18 09:06:52;;;;;;;22.38;13.98;;;;;;;5.94;100.00;101713.41;4989823;28;20429;-70
2024/02/18 09:09:18;;;;;;;23.90;13.80;;;;;;;6.46;100.00;101774.53;4989763;28;20034;-73
2024/02/18 09:11:45;;;;;;;22.58;13.13;;;;;;;6.54;100.00;101746.88;4988886;28;20123;-69
2024/02/18 09:14:11;;;;;;;22.08;12.32;;;;;;;6.73;100.00;101775.69;4974890;28;20545;-71
2024/02/18 09:16:36;;;;;;;25.13;14.60;;;;;;;6.02;100.00;101644.78;4989568;28;20130;-70
2024/02/18 09:19:02;;;;;;;25.58;14.18;;;;;;;6.93;100.00;101774.56;4989496;28;20088;-70
2024/02/18 09:21:29;;;;;;;27.25;14.98;;;;;;;7.07;100.00;101774.69;4989800;28;20057;-69
2024/02/18 09:23:54;;;;;;;26.85;15.02;;;;;;;7.17;100.00;101774.53;4985133;28;20147;-69
2024/02/18 09:26:20;;;;;;;24.73;15.05;;;;;;;6.96;100.00;101722.53;4989123;28;20815;-70
2024/02/18 09:28:45;;;;;;;24.52;14.40;;;;;;;7.33;100.00;101773.06;4989745;28;20406;-70
2024/02/18 09:31:11;;;;;;;26.02;15.55;;;;;;;7.48;100.00;101778.38;4962081;28;20121;-70
2024/02/18 09:33:41;;;;;;;28.40;16.15;;;;;;;7.54;100.00;101743.75;4989526;28;20034;-71
2024/02/18 09:36:07;;;;;;;31.70;17.08;;;;;;;7.74;100.00;101752.84;4986427;28;20509;-70
2024/02/18 09:38:32;;;;;;;25.38;16.67;;;;;;;7.76;100.00;101758.09;4978049;28;20023;-70
2024/02/18 09:40:58;;;;;;;26.60;15.98;;;;;;;7.86;100.00;101751.91;4989493;28;20076;-70
2024/02/18 09:43:26;;;;;;;26.15;14.05;;;;;;;7.95;100.00;101742.25;4989978;28;20022;-70
2024/02/18 09:45:54;;;;;;;26.35;16.70;;;;;;;8.30;100.00;101745.41;4988220;28;20034;-70
2024/02/18 09:48:23;;;;;;;28.02;17.52;;;;;;;8.41;100.00;101750.50;4989492;28;20509;-69
2024/02/18 09:50:49;;;;;;;27.90;17.67;;;;;;;8.26;100.00;101727.22;4989381;28;20038;-70
2024/02/18 09:53:16;;;;;;;27.65;17.73;;;;;;;8.50;100.00;101732.22;4989290;28;20026;-70
2024/02/18 09:55:44;;;;;;;30.98;17.73;;;;;;;8.64;100.00;101740.84;4988986;28;20026;-70
2024/02/18 09:58:10;;;;;;;25.75;16.77;;;;;;;8.79;100.00;101728.06;4989218;28;20088;-70
2024/02/18 10:00:36;;;;;;;29.15;17.45;;;;;;;8.90;100.00;101721.91;4985553;28;20053;-70
2024/02/18 10:03:03;;;;;;;33.72;18.92;;;;;;;9.09;100.00;101722.22;4989167;28;20031;-69
2024/02/18 10:05:31;;;;;;;39.70;22.77;;;;;;;9.25;100.00;101718.91;4989029;28;20405;-69
2024/02/18 10:08:03;;;;;;;29.50;18.65;;;;;;;9.21;100.00;101705.84;4988904;28;20034;-70
2024/02/18 10:10:33;;;;;;;32.97;20.65;;;;;;;9.38;100.00;101717.19;4989007;28;20045;-70
2024/02/18 10:12:59;;;;;;;;;;;;;;;9.57;100.00;101709.69;4987420;28;20070;-69
2024/02/18 10:15:24;;;;;;;30.58;16.30;;;;;;;9.67;100.00;101699.13;4992667;28;19969;-69
2024/02/18 10:17:50;;;;;;;28.15;16.52;;;;;;;9.74;100.00;101685.81;4994098;28;20057;-70
2024/02/18 10:20:15;;;;;;;28.52;17.30;;;;;;;9.94;100.00;101693.84;4992342;28;20468;-70
2024/02/18 10:22:42;;;;;;;26.30;16.23;;;;;;;10.22;93.64;101688.63;4992349;28;20041;-72
2024/02/18 10:25:08;;;;;;;23.33;15.00;;;;;;;10.39;94.88;101691.31;4992538;28;20027;-74
2024/02/18 10:27:38;;;;;;;28.98;16.60;;;;;;;9.96;93.94;101609.72;4992332;28;20414;-71
2024/02/18 10:30:03;;;;;;;;;;;;;;;10.63;92.28;101690.13;4993072;28;20037;-70
2024/02/18 10:32:30;;;;;;;25.85;14.73;;;;;;;10.75;90.61;101683.88;4992660;28;19918;-71
2024/02/18 10:34:55;;;;;;;21.80;14.25;;;;;;;10.78;90.50;101684.03;4992099;28;20030;-72
2024/02/18 10:37:29;;;;;;;20.73;13.57;;;;;;;10.75;93.68;101666.66;4992635;28;20023;-70
2024/02/18 10:40:02;;;;;;;22.08;14.57;;;;;;;11.10;91.72;101679.75;4992837;28;20041;-70
2024/02/18 10:42:29;;;;;;;26.23;15.73;;;;;;;11.21;89.08;101677.75;4978232;28;20041;-69
2024/02/18 10:44:57;;;;;;;27.48;15.90;;;;;;;11.20;87.91;101655.28;4989491;28;20049;-70
2024/02/18 10:47:24;;;;;;;22.77;13.75;;;;;;;11.44;86.67;101664.34;4991969;28;20157;-71
2024/02/18 10:50:04;;;;;;;22.20;14.93;;;;;;;11.44;86.48;101663.44;4991567;28;20084;-71
2024/02/18 10:52:49;;;;;;;23.02;14.27;;;;;;;11.59;85.88;101658.19;4992673;28;20045;-71
2024/02/18 10:55:20;;;;;;;23.73;14.82;;;;;;;11.57;85.15;101654.66;4992210;28;20030;-70
2024/02/18 10:58:03;;;;;;;19.67;12.45;;;;;;;11.79;83.91;101649.75;4991600;28;20146;-70
2024/02/18 11:00:31;;;;;;;22.92;15.25;;;;;;;11.88;88.43;101632.94;4987849;28;20537;-70
2024/02/18 11:03:11;;;;;;;24.20;14.35;;;;;;;12.14;82.35;101647.22;4991882;28;20041;-70
2024/02/18 11:05:38;;;;;;;23.92;15.57;;;;;;;12.26;86.70;101646.91;4991898;28;20038;-72